sensor_id;sensor_type;location;lat;lon;timestamp;P1;durP1;ratioP1;P2;durP2;ratioP2
13605;SDS011;6874;52.084;5.090;2023-02-24T00:01:37;19.87;;;19.27;;
13605;SDS011;6874;52.084;5.090;2023-02-24T00:04:07;20.17;;;19.57;;
13605;SDS011;6874;52.084;5.090;2023-02-24T00:06:36;20.63;;;19.97;;
13605;SDS011;6874;52.084;5.090;2023-02-24T00:09:23;18.37;;;17.80;;
13605;SDS011;6874;52.084;5.090;2023-02-24T00:11:54;15.90;;;15.40;;
13605;SDS011;6874;52.084;5.090;2023-02-24T00:14:22;19.27;;;18.67;;
13605;SDS011;6874;52.084;5.090;2023-02-24T00:16:51;19.17;;;18.57;;
13605;SDS011;6874;52.084;5.090;2023-02-24T00:19:18;20.27;;;19.67;;
13605;SDS011;6874;52.084;5.090;2023-02-24T00:21:46;18.23;;;17.67;;
13605;SDS011;6874;52.084;5.090;2023-02-24T00:24:12;19.97;;;19.37;;
13605;SDS011;6874;52.084;5.090;2023-02-24T00:26:38;20.13;;;19.50;;
13605;SDS011;6874;52.084;5.090;2023-02-24T00:29:05;21.20;;;20.53;;
13605;SDS011;6874;52.084;5.090;2023-02-24T00:31:33;17.93;;;17.40;;
13605;SDS011;6874;52.084;5.090;2023-02-24T00:34:03;17.07;;;16.57;;
13605;SDS011;6874;52.084;5.090;2023-02-24T00:36:30;18.40;;;17.80;;
13605;SDS011;6874;52.084;5.090;2023-02-24T00:39:07;17.20;;;16.67;;
13605;SDS011;6874;52.084;5.090;2023-02-24T00:41:34;18.67;;;18.07;;
13605;SDS011;6874;52.084;5.090;2023-02-24T00:44:02;19.53;;;18.93;;
13605;SDS011;6874;52.084;5.090;2023-02-24T00:46:30;18.43;;;17.83;;
13605;SDS011;6874;52.084;5.090;2023-02-24T00:49:06;15.93;;;15.43;;
13605;SDS011;6874;52.084;5.090;2023-02-24T00:51:35;16.87;;;16.37;;
13605;SDS011;6874;52.084;5.090;2023-02-24T00:54:02;15.97;;;15.47;;
13605;SDS011;6874;52.084;5.090;2023-02-24T00:56:28;14.00;;;13.60;;
13605;SDS011;6874;52.084;5.090;2023-02-24T00:58:55;16.37;;;15.87;;
13605;SDS011;6874;52.084;5.090;2023-02-24T01:01:23;14.63;;;14.17;;
13605;SDS011;6874;52.084;5.090;2023-02-24T01:03:50;15.90;;;15.40;;
13605;SDS011;6874;52.084;5.090;2023-02-24T01:06:19;15.33;;;14.83;;
13605;SDS011;6874;52.084;5.090;2023-02-24T01:08:46;12.93;;;12.53;;
13605;SDS011;6874;52.084;5.090;2023-02-24T01:11:14;16.20;;;15.70;;
13605;SDS011;6874;52.084;5.090;2023-02-24T01:14:03;12.97;;;12.57;;
13605;SDS011;6874;52.084;5.090;2023-02-24T01:16:29;11.93;;;11.57;;
13605;SDS011;6874;52.084;5.090;2023-02-24T01:18:54;14.97;;;14.50;;
13605;SDS011;6874;52.084;5.090;2023-02-24T01:21:20;12.57;;;12.17;;
13605;SDS011;6874;52.084;5.090;2023-02-24T01:23:46;15.47;;;14.97;;
13605;SDS011;6874;52.084;5.090;2023-02-24T01:26:13;11.53;;;11.20;;
13605;SDS011;6874;52.084;5.090;2023-02-24T01:28:39;11.67;;;11.37;;
13605;SDS011;6874;52.084;5.090;2023-02-24T01:31:05;12.20;;;11.80;;
13605;SDS011;6874;52.084;5.090;2023-02-24T01:33:32;12.97;;;12.57;;
13605;SDS011;6874;52.084;5.090;2023-02-24T01:36:08;11.67;;;11.30;;
13605;SDS011;6874;52.084;5.090;2023-02-24T01:38:36;12.20;;;11.80;;
13605;SDS011;6874;52.084;5.090;2023-02-24T01:41:03;12.77;;;12.37;;
13605;SDS011;6874;52.084;5.090;2023-02-24T01:43:33;12.20;;;11.80;;
13605;SDS011;6874;52.084;5.090;2023-02-24T01:46:18;12.27;;;11.87;;
13605;SDS011;6874;52.084;5.090;2023-02-24T01:48:48;9.20;;;8.90;;
13605;SDS011;6874;52.084;5.090;2023-02-24T01:51:15;10.10;;;9.80;;
13605;SDS011;6874;52.084;5.090;2023-02-24T01:53:41;11.27;;;10.97;;
13605;SDS011;6874;52.084;5.090;2023-02-24T01:56:07;10.60;;;10.30;;
13605;SDS011;6874;52.084;5.090;2023-02-24T01:58:37;9.97;;;9.67;;
13605;SDS011;6874;52.084;5.090;2023-02-24T02:01:04;11.43;;;11.13;;
13605;SDS011;6874;52.084;5.090;2023-02-24T02:03:34;11.33;;;11.03;;
13605;SDS011;6874;52.084;5.090;2023-02-24T02:06:05;10.07;;;9.77;;
13605;SDS011;6874;52.084;5.090;2023-02-24T02:08:32;11.33;;;11.03;;
13605;SDS011;6874;52.084;5.090;2023-02-24T02:11:05;9.00;;;8.70;;
13605;SDS011;6874;52.084;5.090;2023-02-24T02:13:33;7.90;;;7.70;;
13605;SDS011;6874;52.084;5.090;2023-02-24T02:16:05;9.77;;;9.47;;
13605;SDS011;6874;52.084;5.090;2023-02-24T02:24:29;11.30;;;10.97;;
13605;SDS011;6874;52.084;5.090;2023-02-24T02:35:36;11.80;;;11.47;;
13605;SDS011;6874;52.084;5.090;2023-02-24T02:41:02;12.80;;;12.40;;
13605;SDS011;6874;52.084;5.090;2023-02-24T02:43:36;12.53;;;12.13;;
13605;SDS011;6874;52.084;5.090;2023-02-24T02:46:16;11.93;;;11.53;;
13605;SDS011;6874;52.084;5.090;2023-02-24T02:48:58;7.80;;;7.60;;
13605;SDS011;6874;52.084;5.090;2023-02-24T02:51:31;12.87;;;12.47;;
13605;SDS011;6874;52.084;5.090;2023-02-24T02:54:23;10.77;;;10.47;;
13605;SDS011;6874;52.084;5.090;2023-02-24T02:56:56;13.90;;;13.50;;
13605;SDS011;6874;52.084;5.090;2023-02-24T02:59:28;8.20;;;8.00;;
13605;SDS011;6874;52.084;5.090;2023-02-24T03:01:56;12.33;;;11.93;;
13605;SDS011;6874;52.084;5.090;2023-02-24T03:04:36;9.40;;;9.10;;
13605;SDS011;6874;52.084;5.090;2023-02-24T03:07:06;12.27;;;11.87;;
13605;SDS011;6874;52.084;5.090;2023-02-24T03:09:35;13.97;;;13.57;;
13605;SDS011;6874;52.084;5.090;2023-02-24T03:12:08;12.70;;;12.30;;
13605;SDS011;6874;52.084;5.090;2023-02-24T03:14:37;7.93;;;7.73;;
13605;SDS011;6874;52.084;5.090;2023-02-24T03:17:08;7.87;;;7.67;;
13605;SDS011;6874;52.084;5.090;2023-02-24T03:19:38;7.40;;;7.20;;
13605;SDS011;6874;52.084;5.090;2023-02-24T03:22:07;9.83;;;9.53;;
13605;SDS011;6874;52.084;5.090;2023-02-24T03:24:43;13.93;;;13.53;;
13605;SDS011;6874;52.084;5.090;2023-02-24T03:32:23;11.93;;;11.57;;
13605;SDS011;6874;52.084;5.090;2023-02-24T03:35:01;9.97;;;9.67;;
13605;SDS011;6874;52.084;5.090;2023-02-24T03:37:33;11.07;;;10.77;;
13605;SDS011;6874;52.084;5.090;2023-02-24T03:40:01;11.20;;;10.90;;
13605;SDS011;6874;52.084;5.090;2023-02-24T03:42:45;9.30;;;9.00;;
13605;SDS011;6874;52.084;5.090;2023-02-24T03:45:14;14.43;;;14.03;;
13605;SDS011;6874;52.084;5.090;2023-02-24T03:47:40;7.50;;;7.30;;
13605;SDS011;6874;52.084;5.090;2023-02-24T03:50:14;13.37;;;12.97;;
13605;SDS011;6874;52.084;5.090;2023-02-24T04:01:12;16.03;;;15.53;;
13605;SDS011;6874;52.084;5.090;2023-02-24T04:09:46;17.23;;;16.70;;
13605;SDS011;6874;52.084;5.090;2023-02-24T04:11:55;18.60;;;18.00;;
13605;SDS011;6874;52.084;5.090;2023-02-24T04:14:56;20.77;;;20.13;;
13605;SDS011;6874;52.084;5.090;2023-02-24T04:20:25;20.57;;;19.93;;
13605;SDS011;6874;52.084;5.090;2023-02-24T04:22:55;24.97;;;24.17;;
13605;SDS011;6874;52.084;5.090;2023-02-24T04:25:26;24.67;;;23.87;;
13605;SDS011;6874;52.084;5.090;2023-02-24T04:27:53;21.50;;;20.80;;
13605;SDS011;6874;52.084;5.090;2023-02-24T04:30:23;17.07;;;16.57;;
13605;SDS011;6874;52.084;5.090;2023-02-24T04:32:52;20.37;;;19.77;;
13605;SDS011;6874;52.084;5.090;2023-02-24T04:35:18;16.53;;;16.03;;
13605;SDS011;6874;52.084;5.090;2023-02-24T04:37:46;20.63;;;20.03;;
13605;SDS011;6874;52.084;5.090;2023-02-24T04:40:14;20.87;;;20.27;;
13605;SDS011;6874;52.084;5.090;2023-02-24T04:42:42;24.57;;;23.77;;
13605;SDS011;6874;52.084;5.090;2023-02-24T04:45:17;23.70;;;23.00;;
13605;SDS011;6874;52.084;5.090;2023-02-24T04:47:46;20.93;;;20.30;;
13605;SDS011;6874;52.084;5.090;2023-02-24T04:50:17;23.83;;;23.07;;
13605;SDS011;6874;52.084;5.090;2023-02-24T04:52:48;23.30;;;22.60;;
13605;SDS011;6874;52.084;5.090;2023-02-24T04:55:14;23.73;;;23.03;;
13605;SDS011;6874;52.084;5.090;2023-02-24T04:57:41;23.50;;;22.80;;
13605;SDS011;6874;52.084;5.090;2023-02-24T05:00:09;23.07;;;22.37;;
13605;SDS011;6874;52.084;5.090;2023-02-24T05:02:47;19.83;;;19.23;;
13605;SDS011;6874;52.084;5.090;2023-02-24T05:05:15;21.07;;;20.40;;
13605;SDS011;6874;52.084;5.090;2023-02-24T05:07:42;22.17;;;21.47;;
13605;SDS011;6874;52.084;5.090;2023-02-24T05:10:12;18.60;;;18.00;;
13605;SDS011;6874;52.084;5.090;2023-02-24T05:12:39;23.47;;;22.77;;
13605;SDS011;6874;52.084;5.090;2023-02-24T05:15:06;17.60;;;17.07;;
13605;SDS011;6874;52.084;5.090;2023-02-24T05:17:32;22.60;;;21.90;;
13605;SDS011;6874;52.084;5.090;2023-02-24T05:19:59;22.70;;;22.00;;
13605;SDS011;6874;52.084;5.090;2023-02-24T05:22:43;18.47;;;17.87;;
13605;SDS011;6874;52.084;5.090;2023-02-24T05:25:08;17.97;;;17.40;;
13605;SDS011;6874;52.084;5.090;2023-02-24T05:27:38;17.00;;;16.50;;
13605;SDS011;6874;52.084;5.090;2023-02-24T05:30:04;18.43;;;17.83;;
13605;SDS011;6874;52.084;5.090;2023-02-24T05:32:33;19.50;;;18.90;;
13605;SDS011;6874;52.084;5.090;2023-02-24T05:35:00;16.57;;;16.07;;
13605;SDS011;6874;52.084;5.090;2023-02-24T05:37:26;18.90;;;18.30;;
13605;SDS011;6874;52.084;5.090;2023-02-24T05:39:55;20.77;;;20.13;;
13605;SDS011;6874;52.084;5.090;2023-02-24T05:42:24;19.07;;;18.47;;
13605;SDS011;6874;52.084;5.090;2023-02-24T05:44:51;19.53;;;18.93;;
13605;SDS011;6874;52.084;5.090;2023-02-24T05:47:17;21.10;;;20.43;;
13605;SDS011;6874;52.084;5.090;2023-02-24T05:49:43;20.37;;;19.77;;
13605;SDS011;6874;52.084;5.090;2023-02-24T05:52:09;18.60;;;18.00;;
13605;SDS011;6874;52.084;5.090;2023-02-24T05:54:36;15.33;;;14.87;;
13605;SDS011;6874;52.084;5.090;2023-02-24T05:57:05;20.70;;;20.07;;
13605;SDS011;6874;52.084;5.090;2023-02-24T05:59:33;19.17;;;18.57;;
13605;SDS011;6874;52.084;5.090;2023-02-24T06:02:00;19.67;;;19.07;;
13605;SDS011;6874;52.084;5.090;2023-02-24T06:04:31;16.63;;;16.13;;
13605;SDS011;6874;52.084;5.090;2023-02-24T06:07:09;13.57;;;13.17;;
13605;SDS011;6874;52.084;5.090;2023-02-24T06:09:43;17.53;;;17.00;;
13605;SDS011;6874;52.084;5.090;2023-02-24T06:12:09;14.90;;;14.43;;
13605;SDS011;6874;52.084;5.090;2023-02-24T06:14:36;14.37;;;13.93;;
13605;SDS011;6874;52.084;5.090;2023-02-24T06:17:01;17.63;;;17.10;;
13605;SDS011;6874;52.084;5.090;2023-02-24T06:19:27;16.83;;;16.33;;
13605;SDS011;6874;52.084;5.090;2023-02-24T06:21:56;15.10;;;14.63;;
13605;SDS011;6874;52.084;5.090;2023-02-24T06:24:26;13.37;;;12.97;;
13605;SDS011;6874;52.084;5.090;2023-02-24T06:26:53;16.90;;;16.40;;
13605;SDS011;6874;52.084;5.090;2023-02-24T06:29:27;14.63;;;14.20;;
13605;SDS011;6874;52.084;5.090;2023-02-24T06:31:55;15.07;;;14.60;;
13605;SDS011;6874;52.084;5.090;2023-02-24T06:34:24;16.13;;;15.63;;
13605;SDS011;6874;52.084;5.090;2023-02-24T06:36:51;11.60;;;11.27;;
13605;SDS011;6874;52.084;5.090;2023-02-24T06:39:17;16.60;;;16.10;;
13605;SDS011;6874;52.084;5.090;2023-02-24T06:41:43;12.07;;;11.70;;
13605;SDS011;6874;52.084;5.090;2023-02-24T06:44:09;13.60;;;13.20;;
13605;SDS011;6874;52.084;5.090;2023-02-24T06:46:35;14.27;;;13.87;;
13605;SDS011;6874;52.084;5.090;2023-02-24T06:49:01;12.83;;;12.43;;
13605;SDS011;6874;52.084;5.090;2023-02-24T06:51:27;11.70;;;11.37;;
13605;SDS011;6874;52.084;5.090;2023-02-24T06:53:57;13.83;;;13.43;;
13605;SDS011;6874;52.084;5.090;2023-02-24T06:56:23;12.90;;;12.50;;
13605;SDS011;6874;52.084;5.090;2023-02-24T06:58:50;16.33;;;15.83;;
13605;SDS011;6874;52.084;5.090;2023-02-24T07:01:24;17.73;;;17.23;;
13605;SDS011;6874;52.084;5.090;2023-02-24T07:03:53;14.63;;;14.20;;
13605;SDS011;6874;52.084;5.090;2023-02-24T07:06:42;20.57;;;19.93;;
13605;SDS011;6874;52.084;5.090;2023-02-24T07:09:10;14.50;;;14.10;;
13605;SDS011;6874;52.084;5.090;2023-02-24T07:11:38;13.27;;;12.87;;
13605;SDS011;6874;52.084;5.090;2023-02-24T07:14:06;20.43;;;19.80;;
13605;SDS011;6874;52.084;5.090;2023-02-24T07:16:33;22.13;;;21.43;;
13605;SDS011;6874;52.084;5.090;2023-02-24T07:19:01;16.10;;;15.60;;
13605;SDS011;6874;52.084;5.090;2023-02-24T07:21:29;17.10;;;16.60;;
13605;SDS011;6874;52.084;5.090;2023-02-24T07:24:03;20.97;;;20.30;;
13605;SDS011;6874;52.084;5.090;2023-02-24T07:26:32;15.90;;;15.40;;
13605;SDS011;6874;52.084;5.090;2023-02-24T07:28:58;20.10;;;19.50;;
13605;SDS011;6874;52.084;5.090;2023-02-24T07:31:29;17.70;;;17.20;;
13605;SDS011;6874;52.084;5.090;2023-02-24T07:33:58;15.97;;;15.47;;
13605;SDS011;6874;52.084;5.090;2023-02-24T07:36:26;16.80;;;16.30;;
13605;SDS011;6874;52.084;5.090;2023-02-24T07:38:54;18.97;;;18.37;;
13605;SDS011;6874;52.084;5.090;2023-02-24T07:41:25;19.23;;;18.63;;
13605;SDS011;6874;52.084;5.090;2023-02-24T07:43:52;16.80;;;16.30;;
13605;SDS011;6874;52.084;5.090;2023-02-24T07:46:23;17.07;;;16.57;;
13605;SDS011;6874;52.084;5.090;2023-02-24T07:48:52;16.70;;;16.20;;
13605;SDS011;6874;52.084;5.090;2023-02-24T07:51:19;16.30;;;15.80;;
13605;SDS011;6874;52.084;5.090;2023-02-24T07:53:48;15.80;;;15.30;;
13605;SDS011;6874;52.084;5.090;2023-02-24T07:56:19;14.07;;;13.67;;
13605;SDS011;6874;52.084;5.090;2023-02-24T07:58:50;15.03;;;14.57;;
13605;SDS011;6874;52.084;5.090;2023-02-24T08:01:23;14.00;;;13.57;;
13605;SDS011;6874;52.084;5.090;2023-02-24T08:03:53;13.43;;;13.03;;
13605;SDS011;6874;52.084;5.090;2023-02-24T08:06:22;15.13;;;14.63;;
13605;SDS011;6874;52.084;5.090;2023-02-24T08:08:54;15.93;;;15.43;;
13605;SDS011;6874;52.084;5.090;2023-02-24T08:11:27;12.87;;;12.47;;
13605;SDS011;6874;52.084;5.090;2023-02-24T08:14:02;17.10;;;16.60;;
13605;SDS011;6874;52.084;5.090;2023-02-24T08:16:34;15.07;;;14.57;;
13605;SDS011;6874;52.084;5.090;2023-02-24T08:19:10;14.00;;;13.60;;
13605;SDS011;6874;52.084;5.090;2023-02-24T08:21:38;16.63;;;16.13;;
13605;SDS011;6874;52.084;5.090;2023-02-24T08:24:06;17.30;;;16.80;;
13605;SDS011;6874;52.084;5.090;2023-02-24T08:26:41;17.27;;;16.77;;
13605;SDS011;6874;52.084;5.090;2023-02-24T08:29:09;13.23;;;12.80;;
13605;SDS011;6874;52.084;5.090;2023-02-24T08:31:35;18.30;;;17.70;;
13605;SDS011;6874;52.084;5.090;2023-02-24T08:34:00;17.67;;;17.07;;
13605;SDS011;6874;52.084;5.090;2023-02-24T08:36:26;13.33;;;12.93;;
13605;SDS011;6874;52.084;5.090;2023-02-24T08:38:54;18.30;;;17.70;;
13605;SDS011;6874;52.084;5.090;2023-02-24T08:41:23;16.50;;;16.00;;
13605;SDS011;6874;52.084;5.090;2023-02-24T08:43:53;18.13;;;17.53;;
13605;SDS011;6874;52.084;5.090;2023-02-24T08:46:20;23.43;;;22.63;;
13605;SDS011;6874;52.084;5.090;2023-02-24T08:48:53;14.13;;;13.73;;
13605;SDS011;6874;52.084;5.090;2023-02-24T08:53:50;21.80;;;21.10;;
13605;SDS011;6874;52.084;5.090;2023-02-24T08:56:18;12.17;;;11.77;;
13605;SDS011;6874;52.084;5.090;2023-02-24T08:58:50;21.33;;;20.63;;
13605;SDS011;6874;52.084;5.090;2023-02-24T09:01:21;14.17;;;13.77;;
13605;SDS011;6874;52.084;5.090;2023-02-24T09:03:58;13.10;;;12.70;;
13605;SDS011;6874;52.084;5.090;2023-02-24T09:09:15;12.47;;;12.07;;
13605;SDS011;6874;52.084;5.090;2023-02-24T09:16:53;15.13;;;14.63;;
13605;SDS011;6874;52.084;5.090;2023-02-24T09:22:10;73.27;;;69.23;;
13605;SDS011;6874;52.084;5.090;2023-02-24T09:24:55;37.67;;;36.37;;
13605;SDS011;6874;52.084;5.090;2023-02-24T09:30:32;83.13;;;80.23;;
13605;SDS011;6874;52.084;5.090;2023-02-24T09:33:06;87.93;;;84.87;;
13605;SDS011;6874;52.084;5.090;2023-02-24T09:35:41;88.80;;;85.73;;
13605;SDS011;6874;52.084;5.090;2023-02-24T09:38:15;84.10;;;81.23;;
13605;SDS011;6874;52.084;5.090;2023-02-24T09:40:47;75.20;;;72.53;;
13605;SDS011;6874;52.084;5.090;2023-02-24T09:43:24;67.13;;;64.83;;
13605;SDS011;6874;52.084;5.090;2023-02-24T09:46:01;61.23;;;59.13;;
13605;SDS011;6874;52.084;5.090;2023-02-24T09:51:42;58.47;;;56.47;;
13605;SDS011;6874;52.084;5.090;2023-02-24T09:54:15;47.43;;;45.83;;
13605;SDS011;6874;52.084;5.090;2023-02-24T09:57:01;51.40;;;49.67;;
13605;SDS011;6874;52.084;5.090;2023-02-24T09:59:49;50.23;;;48.53;;
13605;SDS011;6874;52.084;5.090;2023-02-24T10:02:49;59.43;;;57.43;;
13605;SDS011;6874;52.084;5.090;2023-02-24T10:05:46;54.07;;;52.27;;
13605;SDS011;6874;52.084;5.090;2023-02-24T10:08:32;51.23;;;49.50;;
13605;SDS011;6874;52.084;5.090;2023-02-24T10:11:02;54.23;;;52.40;;
13605;SDS011;6874;52.084;5.090;2023-02-24T10:13:31;41.00;;;39.63;;
13605;SDS011;6874;52.084;5.090;2023-02-24T10:16:08;47.33;;;45.73;;
13605;SDS011;6874;52.084;5.090;2023-02-24T10:18:48;45.93;;;44.40;;
13605;SDS011;6874;52.084;5.090;2023-02-24T10:24:46;56.17;;;54.27;;
13605;SDS011;6874;52.084;5.090;2023-02-24T10:27:23;53.90;;;52.10;;
13605;SDS011;6874;52.084;5.090;2023-02-24T10:30:13;47.03;;;45.47;;
13605;SDS011;6874;52.084;5.090;2023-02-24T10:32:55;54.60;;;52.77;;
13605;SDS011;6874;52.084;5.090;2023-02-24T10:35:25;51.97;;;50.20;;
13605;SDS011;6874;52.084;5.090;2023-02-24T10:37:57;58.07;;;56.07;;
13605;SDS011;6874;52.084;5.090;2023-02-24T10:40:29;52.33;;;50.57;;
13605;SDS011;6874;52.084;5.090;2023-02-24T10:43:15;57.33;;;55.40;;
13605;SDS011;6874;52.084;5.090;2023-02-24T10:45:43;51.83;;;50.10;;
13605;SDS011;6874;52.084;5.090;2023-02-24T10:48:22;49.53;;;47.87;;
13605;SDS011;6874;52.084;5.090;2023-02-24T10:50:52;49.37;;;47.70;;
13605;SDS011;6874;52.084;5.090;2023-02-24T10:53:20;51.93;;;50.20;;
13605;SDS011;6874;52.084;5.090;2023-02-24T10:55:52;47.93;;;46.33;;
13605;SDS011;6874;52.084;5.090;2023-02-24T10:58:39;47.27;;;45.70;;
13605;SDS011;6874;52.084;5.090;2023-02-24T11:01:26;47.07;;;45.50;;
13605;SDS011;6874;52.084;5.090;2023-02-24T11:04:31;61.70;;;59.60;;
13605;SDS011;6874;52.084;5.090;2023-02-24T11:07:18;72.13;;;69.67;;
13605;SDS011;6874;52.084;5.090;2023-02-24T11:10:11;66.77;;;64.50;;
13605;SDS011;6874;52.084;5.090;2023-02-24T11:12:49;79.37;;;76.70;;
13605;SDS011;6874;52.084;5.090;2023-02-24T11:15:35;78.03;;;75.37;;
13605;SDS011;6874;52.084;5.090;2023-02-24T11:18:28;86.27;;;83.30;;
13605;SDS011;6874;52.084;5.090;2023-02-24T11:20:59;93.00;;;89.80;;
13605;SDS011;6874;52.084;5.090;2023-02-24T11:23:37;102.23;;;98.63;;
13605;SDS011;6874;52.084;5.090;2023-02-24T11:26:17;94.23;;;90.93;;
13605;SDS011;6874;52.084;5.090;2023-02-24T11:28:52;92.47;;;89.27;;
13605;SDS011;6874;52.084;5.090;2023-02-24T11:36:30;93.27;;;90.00;;
13605;SDS011;6874;52.084;5.090;2023-02-24T11:42:06;72.13;;;69.63;;
13605;SDS011;6874;52.084;5.090;2023-02-24T11:47:33;68.23;;;65.87;;
13605;SDS011;6874;52.084;5.090;2023-02-24T11:50:16;67.63;;;65.33;;
13605;SDS011;6874;52.084;5.090;2023-02-24T11:52:47;64.23;;;62.03;;
13605;SDS011;6874;52.084;5.090;2023-02-24T11:55:26;72.43;;;69.90;;
13605;SDS011;6874;52.084;5.090;2023-02-24T11:57:58;58.43;;;56.40;;
13605;SDS011;6874;52.084;5.090;2023-02-24T12:00:27;58.30;;;56.30;;
13605;SDS011;6874;52.084;5.090;2023-02-24T12:03:15;55.60;;;53.70;;
13605;SDS011;6874;52.084;5.090;2023-02-24T12:05:51;43.87;;;42.40;;
13605;SDS011;6874;52.084;5.090;2023-02-24T12:08:54;42.27;;;40.87;;
13605;SDS011;6874;52.084;5.090;2023-02-24T12:11:34;36.73;;;35.50;;
13605;SDS011;6874;52.084;5.090;2023-02-24T12:14:27;27.67;;;26.77;;
13605;SDS011;6874;52.084;5.090;2023-02-24T12:17:16;32.27;;;31.20;;
13605;SDS011;6874;52.084;5.090;2023-02-24T12:20:05;31.63;;;30.60;;
13605;SDS011;6874;52.084;5.090;2023-02-24T12:22:57;35.90;;;34.70;;
13605;SDS011;6874;52.084;5.090;2023-02-24T12:25:31;37.00;;;35.77;;
13605;SDS011;6874;52.084;5.090;2023-02-24T12:28:21;38.97;;;37.67;;
13605;SDS011;6874;52.084;5.090;2023-02-24T12:34:11;36.00;;;34.80;;
13605;SDS011;6874;52.084;5.090;2023-02-24T12:39:51;43.17;;;41.73;;
13605;SDS011;6874;52.084;5.090;2023-02-24T12:42:37;40.17;;;38.87;;
13605;SDS011;6874;52.084;5.090;2023-02-24T12:45:38;35.63;;;34.47;;
13605;SDS011;6874;52.084;5.090;2023-02-24T12:51:04;31.40;;;30.30;;
13605;SDS011;6874;52.084;5.090;2023-02-24T12:56:37;29.23;;;28.23;;
13605;SDS011;6874;52.084;5.090;2023-02-24T12:59:25;31.70;;;30.60;;
13605;SDS011;6874;52.084;5.090;2023-02-24T13:02:00;29.63;;;28.63;;
13605;SDS011;6874;52.084;5.090;2023-02-24T13:04:39;30.97;;;29.90;;
13605;SDS011;6874;52.084;5.090;2023-02-24T13:12:36;32.30;;;31.20;;
13605;SDS011;6874;52.084;5.090;2023-02-24T13:15:17;27.77;;;26.87;;
13605;SDS011;6874;52.084;5.090;2023-02-24T13:17:49;27.30;;;26.37;;
13605;SDS011;6874;52.084;5.090;2023-02-24T13:20:29;23.30;;;22.53;;
13605;SDS011;6874;52.084;5.090;2023-02-24T13:23:00;24.03;;;23.23;;
13605;SDS011;6874;52.084;5.090;2023-02-24T13:25:32;30.27;;;29.20;;
13605;SDS011;6874;52.084;5.090;2023-02-24T13:28:02;33.83;;;32.63;;
13605;SDS011;6874;52.084;5.090;2023-02-24T13:31:15;47.90;;;46.10;;
13605;SDS011;6874;52.084;5.090;2023-02-24T13:33:48;27.57;;;26.57;;
13605;SDS011;6874;52.084;5.090;2023-02-24T13:36:16;44.83;;;43.17;;
13605;SDS011;6874;52.084;5.090;2023-02-24T13:43:50;53.00;;;51.03;;
13605;SDS011;6874;52.084;5.090;2023-02-24T13:46:25;47.97;;;46.13;;
13605;SDS011;6874;52.084;5.090;2023-02-24T13:51:47;42.37;;;40.80;;
13605;SDS011;6874;52.084;5.090;2023-02-24T13:54:28;42.83;;;41.23;;
13605;SDS011;6874;52.084;5.090;2023-02-24T13:57:02;41.50;;;40.00;;
13605;SDS011;6874;52.084;5.090;2023-02-24T13:59:52;33.97;;;32.77;;
13605;SDS011;6874;52.084;5.090;2023-02-24T14:02:21;46.80;;;45.03;;
13605;SDS011;6874;52.084;5.090;2023-02-24T14:04:55;55.23;;;53.13;;
13605;SDS011;6874;52.084;5.090;2023-02-24T14:07:24;75.57;;;72.73;;
13605;SDS011;6874;52.084;5.090;2023-02-24T14:09:54;107.00;;;103.07;;
13605;SDS011;6874;52.084;5.090;2023-02-24T14:15:23;111.77;;;107.67;;
13605;SDS011;6874;52.084;5.090;2023-02-24T14:17:57;109.30;;;105.33;;
13605;SDS011;6874;52.084;5.090;2023-02-24T14:20:31;101.87;;;98.23;;
13605;SDS011;6874;52.084;5.090;2023-02-24T14:22:58;137.30;;;132.37;;
13605;SDS011;6874;52.084;5.090;2023-02-24T14:25:26;152.77;;;147.03;;
13605;SDS011;6874;52.084;5.090;2023-02-24T14:27:55;161.57;;;155.33;;
13605;SDS011;6874;52.084;5.090;2023-02-24T14:32:58;170.13;;;163.70;;
13605;SDS011;6874;52.084;5.090;2023-02-24T14:38:25;168.43;;;162.10;;
13605;SDS011;6874;52.084;5.090;2023-02-24T14:40:51;167.30;;;161.10;;
13605;SDS011;6874;52.084;5.090;2023-02-24T14:43:17;185.53;;;178.70;;
13605;SDS011;6874;52.084;5.090;2023-02-24T14:45:46;184.33;;;177.57;;
13605;SDS011;6874;52.084;5.090;2023-02-24T14:53:36;188.37;;;181.47;;
13605;SDS011;6874;52.084;5.090;2023-02-24T14:56:11;201.10;;;193.47;;
13605;SDS011;6874;52.084;5.090;2023-02-24T14:58:41;206.40;;;198.60;;
13605;SDS011;6874;52.084;5.090;2023-02-24T15:04:14;182.30;;;175.33;;
13605;SDS011;6874;52.084;5.090;2023-02-24T15:06:44;186.80;;;179.67;;
13605;SDS011;6874;52.084;5.090;2023-02-24T15:09:12;197.57;;;190.13;;
13605;SDS011;6874;52.084;5.090;2023-02-24T15:11:49;187.90;;;180.87;;
13605;SDS011;6874;52.084;5.090;2023-02-24T15:14:21;161.43;;;155.53;;
13605;SDS011;6874;52.084;5.090;2023-02-24T15:16:52;129.57;;;124.77;;
13605;SDS011;6874;52.084;5.090;2023-02-24T15:22:01;84.67;;;81.67;;
13605;SDS011;6874;52.084;5.090;2023-02-24T15:24:46;67.10;;;64.77;;
13605;SDS011;6874;52.084;5.090;2023-02-24T15:29:44;37.43;;;36.20;;
13605;SDS011;6874;52.084;5.090;2023-02-24T15:32:22;34.30;;;33.20;;
13605;SDS011;6874;52.084;5.090;2023-02-24T15:34:49;23.50;;;22.77;;
13605;SDS011;6874;52.084;5.090;2023-02-24T15:37:20;19.20;;;18.60;;
13605;SDS011;6874;52.084;5.090;2023-02-24T15:39:54;18.70;;;18.10;;
13605;SDS011;6874;52.084;5.090;2023-02-24T15:42:31;17.63;;;17.10;;
13605;SDS011;6874;52.084;5.090;2023-02-24T15:50:06;17.50;;;16.93;;
13605;SDS011;6874;52.084;5.090;2023-02-24T15:52:32;16.80;;;16.27;;
13605;SDS011;6874;52.084;5.090;2023-02-24T15:55:00;19.70;;;19.07;;
13605;SDS011;6874;52.084;5.090;2023-02-24T15:57:27;20.50;;;19.83;;
13605;SDS011;6874;52.084;5.090;2023-02-24T15:59:55;22.53;;;21.80;;
13605;SDS011;6874;52.084;5.090;2023-02-24T16:02:21;20.33;;;19.67;;
13605;SDS011;6874;52.084;5.090;2023-02-24T16:04:48;20.00;;;19.37;;
13605;SDS011;6874;52.084;5.090;2023-02-24T16:07:21;21.10;;;20.40;;
13605;SDS011;6874;52.084;5.090;2023-02-24T16:09:50;19.40;;;18.77;;
13605;SDS011;6874;52.084;5.090;2023-02-24T16:12:19;22.00;;;21.30;;
13605;SDS011;6874;52.084;5.090;2023-02-24T16:14:47;22.10;;;21.37;;
13605;SDS011;6874;52.084;5.090;2023-02-24T16:17:20;22.30;;;21.60;;
13605;SDS011;6874;52.084;5.090;2023-02-24T16:19:54;21.70;;;20.97;;
13605;SDS011;6874;52.084;5.090;2023-02-24T16:22:20;22.93;;;22.20;;
13605;SDS011;6874;52.084;5.090;2023-02-24T16:24:46;24.33;;;23.53;;
13605;SDS011;6874;52.084;5.090;2023-02-24T16:27:14;27.57;;;26.63;;
13605;SDS011;6874;52.084;5.090;2023-02-24T16:29:41;32.23;;;31.13;;
13605;SDS011;6874;52.084;5.090;2023-02-24T16:32:11;33.40;;;32.27;;
13605;SDS011;6874;52.084;5.090;2023-02-24T16:34:37;37.40;;;36.13;;
13605;SDS011;6874;52.084;5.090;2023-02-24T16:37:05;39.43;;;38.13;;
13605;SDS011;6874;52.084;5.090;2023-02-24T16:39:40;38.80;;;37.50;;
13605;SDS011;6874;52.084;5.090;2023-02-24T16:42:07;37.20;;;36.00;;
13605;SDS011;6874;52.084;5.090;2023-02-24T16:44:34;36.33;;;35.13;;
13605;SDS011;6874;52.084;5.090;2023-02-24T16:46:59;34.60;;;33.50;;
13605;SDS011;6874;52.084;5.090;2023-02-24T16:49:25;31.47;;;30.47;;
13605;SDS011;6874;52.084;5.090;2023-02-24T16:51:51;32.95;;;31.88;;
13605;SDS011;6874;52.084;5.090;2023-02-24T16:54:17;26.83;;;25.97;;
13605;SDS011;6874;52.084;5.090;2023-02-24T16:56:46;27.63;;;26.73;;
13605;SDS011;6874;52.084;5.090;2023-02-24T16:59:11;25.77;;;24.97;;
13605;SDS011;6874;52.084;5.090;2023-02-24T17:01:37;25.83;;;25.03;;
13605;SDS011;6874;52.084;5.090;2023-02-24T17:04:04;23.87;;;23.10;;
13605;SDS011;6874;52.084;5.090;2023-02-24T17:06:33;23.90;;;23.13;;
13605;SDS011;6874;52.084;5.090;2023-02-24T17:08:59;23.20;;;22.50;;